Terminal Aerodrome Forecast
Issued by NWS

Home | Current Version | Previous Version | Graphics & Text | Print | Product List | Glossary On
Versions: 1 2 3 4 5 6 7 8 9 10 11 12 13 14 15
000
FTUS43 KMPX 211000 AAA
TAFRWF
TAF AMD
KRWF 211030Z 2111/2206 33006KT P6SM SCT020 BKN090
      TEMPO 2111/2112 5SM -TSRA BR OVC020CB
     FM211230 32017G25KT P6SM SKC
     FM220100 33010KT P6SM SKC=

USA.gov is the U.S. government's official web portal to all federal, state and local government web resources and services.